Terminal Aerodrome Forecast
Issued by NWS

Home | Current Version | Previous Version | Text Only | Print | Product List | Glossary On
Versions: 1 2 3 4 5 6 7 8 9 10 11 12 13 14 15 16 17 18 19 20 21 22 23 24 25 26 27 28
860
FTUS41 KBUF 271342 AAB
TAFJHW
TAF AMD
KJHW 271342Z 2714/2812 18006KT 1/4SM FG VCSH OVC002
     FM271700 24008KT P6SM OVC008
     FM272300 VRB03KT P6SM BKN012
     FM280800 00000KT 5SM -SHRA OVC015
     FM281100 00000KT 4SM -SHRA OVC003
      AMD LTD TO CLD VIS AND WIND=

USA.gov is the U.S. government's official web portal to all federal, state and local government web resources and services.